Jasper S — V2CQ4 — position and weather

sailwx.info

Track history (hours):
 
Tides and Currents Weather Stations Pressure Air Temp Water Temp Dewpoint Dewpoint Depression Visibility Wind Speed Wind Dir Waves Ship Positions

Jasper S

Last reported at 2016-Feb-08 21:33 UTC. Time now 2016-Feb-10 08:50 UTC.
Position N 36°56' W 000°09'.

Length 148 m; draft 9.3 m.

Type: Cargo ship. MMSI: 305079000.

Date/timePositionNaut miles runAvg speedWind from/ knotsBaromVisibWave heightAir tempDewpointWater temp
2016-Feb-08 21:33N 36°56' W 000°09'1615.4
2016-Feb-08 20:32N 37°11' W 000°03'1514.9
2016-Feb-08 19:33N 37°25' E 000°02'1515.2
2016-Feb-08 18:33N 37°40' E 000°07'1615.6
2016-Feb-08 17:32N 37°55' E 000°13'8813.8
2016-Feb-08 11:08N 39°21' W 000°12'712.8
2016-Feb-08 10:33N 39°26' W 000°19'0 0.1
2016-Feb-08 08:16N 39°26' W 000°19'0 0.0
2016-Feb-08 01:08N 39°26' W 000°19'0 0.0
2016-Feb-08 00:32N 39°26' W 000°19'0 0.0
2016-Feb-07 23:32N 39°26' W 000°19'0 0.0
2016-Feb-07 22:28N 39°26' W 000°19'0 0.0
2016-Feb-07 21:28N 39°26' W 000°19'0 0.0
2016-Feb-07 20:32N 39°26' W 000°19'0 0.0
2016-Feb-07 19:32N 39°26' W 000°19'0 0.0
2016-Feb-07 18:32N 39°26' W 000°19'1 0.8
2016-Feb-07 17:33N 39°26' W 000°20'0 0.0
2016-Feb-07 16:33N 39°26' W 000°20'0 0.0
2016-Feb-07 15:33N 39°26' W 000°20'0 0.0
2016-Feb-07 14:33N 39°26' W 000°20'0 0.0
2016-Feb-07 13:33N 39°26' W 000°20'0 0.0
2016-Feb-07 12:33N 39°26' W 000°20'0 0.0
2016-Feb-07 11:33N 39°26' W 000°20'0 0.0
2016-Feb-07 10:27N 39°26' W 000°20'0 0.0
2016-Feb-07 09:27N 39°26' W 000°20'0 0.0
2016-Feb-07 08:27N 39°26' W 000°20'0 0.0
2016-Feb-07 07:31N 39°26' W 000°20'0 0.0
2016-Feb-07 06:33N 39°26' W 000°20'0 0.0
2016-Feb-07 05:33N 39°26' W 000°20'0 0.0
2016-Feb-07 04:33N 39°26' W 000°20'0 0.0
2016-Feb-07 03:33N 39°26' W 000°20'0 0.0
2016-Feb-07 02:33N 39°26' W 000°20'0 0.0
2016-Feb-07 01:33N 39°26' W 000°20'0 0.0
2016-Feb-07 00:33N 39°26' W 000°20'0 0.0
2016-Feb-06 23:31N 39°26' W 000°20'0 0.0
2016-Feb-06 22:25N 39°26' W 000°20'0 0.0
2016-Feb-06 21:31N 39°26' W 000°20'0 0.0
2016-Feb-06 20:31N 39°26' W 000°20'0 0.4
2016-Feb-06 19:33N 39°26' W 000°19'3 1.3
2016-Feb-06 17:33N 39°24' W 000°17'0 0.0
2016-Feb-06 16:26N 39°24' W 000°17'2 0.4
2016-Feb-06 12:33N 39°23' W 000°15'5412.6
2016-Feb-06 08:16N 38°42' E 000°29'912.3
2016-Feb-06 07:33N 38°33' E 000°27'1515.1
2016-Feb-06 06:32N 38°18' E 000°22'1212.2
2016-Feb-06 05:33N 38°07' E 000°18'1211.7
2016-Feb-06 04:33N 37°55' E 000°14'1211.6
2016-Feb-06 03:31N 37°44' E 000°11'1212.0
2016-Feb-06 02:33N 37°32' E 000°07'1212.2
2016-Feb-06 01:33N 37°21' E 000°03'1212.1
2016-Feb-06 00:32N 37°09' W 000°02'1212.2
2016-Feb-05 23:33N 36°57' W 000°06'2612.0
2016-Feb-05 21:22N 36°32' W 000°13'2411.9
2016-Feb-05 19:23N 36°09' W 000°21'  
2016-Feb-03 02:20N 35°43' W 000°38'0 0.0
2016-Feb-03 01:32N 35°43' W 000°38'0 0.0
2016-Feb-03 00:31N 35°43' W 000°38'0 0.0
2016-Feb-02 23:31N 35°43' W 000°38'0 0.0
2016-Feb-02 21:31N 35°43' W 000°38'0 0.0
2016-Feb-02 20:31N 35°43' W 000°38'0 0.0
2016-Feb-02 19:07N 35°43' W 000°38'0 0.0
2016-Feb-02 18:25N 35°43' W 000°38'0 0.0
2016-Feb-02 15:20N 35°43' W 000°38'0 0.0
2016-Feb-02 14:20N 35°43' W 000°38'0 0.0
2016-Feb-02 13:31N 35°43' W 000°38'0 0.0
2016-Feb-02 12:31N 35°43' W 000°38'0 0.0
2016-Feb-02 11:13N 35°43' W 000°38'0 0.0
2016-Feb-02 05:07N 35°43' W 000°38'0 0.0
2016-Feb-02 02:20N 35°43' W 000°38'0 0.0
2016-Feb-02 00:19N 35°43' W 000°38'0 0.0
2016-Feb-01 23:19N 35°43' W 000°38'0 0.0
2016-Feb-01 22:07N 35°43' W 000°38'0 0.0
2016-Feb-01 21:13N 35°43' W 000°38'0 0.0
2016-Feb-01 20:25N 35°43' W 000°38'0 0.0
2016-Feb-01 19:19N 35°43' W 000°38'0 0.0
2016-Feb-01 18:31N 35°43' W 000°38'0 0.0
2016-Feb-01 17:25N 35°43' W 000°38'  
Track history (hours):
 
Tides and Currents Weather Stations Pressure Air Temp Water Temp Dewpoint Dewpoint Depression Visibility Wind Speed Wind Dir Waves Ship Positions

Jasper S

Last reported at 2016-Feb-08 21:33 UTC. Time now 2016-Feb-10 08:50 UTC.
Position N 36°56' W 000°09'.

Length 148 m; draft 9.3 m.

Type: Cargo ship. MMSI: 305079000.

Date/timePositionNaut miles runAvg speedWind from/ knotsBaromVisibWave heightAir tempDewpointWater temp
2016-Feb-08 21:33N 36°56' W 000°09'1615.4
2016-Feb-08 20:32N 37°11' W 000°03'1514.9
2016-Feb-08 19:33N 37°25' E 000°02'1515.2
2016-Feb-08 18:33N 37°40' E 000°07'1615.6
2016-Feb-08 17:32N 37°55' E 000°13'8813.8
2016-Feb-08 11:08N 39°21' W 000°12'712.8
2016-Feb-08 10:33N 39°26' W 000°19'0 0.1
2016-Feb-08 08:16N 39°26' W 000°19'0 0.0
2016-Feb-08 01:08N 39°26' W 000°19'0 0.0
2016-Feb-08 00:32N 39°26' W 000°19'0 0.0
2016-Feb-07 23:32N 39°26' W 000°19'0 0.0
2016-Feb-07 22:28N 39°26' W 000°19'0 0.0
2016-Feb-07 21:28N 39°26' W 000°19'0 0.0
2016-Feb-07 20:32N 39°26' W 000°19'0 0.0
2016-Feb-07 19:32N 39°26' W 000°19'0 0.0
2016-Feb-07 18:32N 39°26' W 000°19'1 0.8
2016-Feb-07 17:33N 39°26' W 000°20'0 0.0
2016-Feb-07 16:33N 39°26' W 000°20'0 0.0
2016-Feb-07 15:33N 39°26' W 000°20'0 0.0
2016-Feb-07 14:33N 39°26' W 000°20'0 0.0
2016-Feb-07 13:33N 39°26' W 000°20'0 0.0
2016-Feb-07 12:33N 39°26' W 000°20'0 0.0
2016-Feb-07 11:33N 39°26' W 000°20'0 0.0
2016-Feb-07 10:27N 39°26' W 000°20'0 0.0
2016-Feb-07 09:27N 39°26' W 000°20'0 0.0
2016-Feb-07 08:27N 39°26' W 000°20'0 0.0
2016-Feb-07 07:31N 39°26' W 000°20'0 0.0
2016-Feb-07 06:33N 39°26' W 000°20'0 0.0
2016-Feb-07 05:33N 39°26' W 000°20'0 0.0
2016-Feb-07 04:33N 39°26' W 000°20'0 0.0
2016-Feb-07 03:33N 39°26' W 000°20'0 0.0
2016-Feb-07 02:33N 39°26' W 000°20'0 0.0
2016-Feb-07 01:33N 39°26' W 000°20'0 0.0
2016-Feb-07 00:33N 39°26' W 000°20'0 0.0
2016-Feb-06 23:31N 39°26' W 000°20'0 0.0
2016-Feb-06 22:25N 39°26' W 000°20'0 0.0
2016-Feb-06 21:31N 39°26' W 000°20'0 0.0
2016-Feb-06 20:31N 39°26' W 000°20'0 0.4
2016-Feb-06 19:33N 39°26' W 000°19'3 1.3
2016-Feb-06 17:33N 39°24' W 000°17'0 0.0
2016-Feb-06 16:26N 39°24' W 000°17'2 0.4
2016-Feb-06 12:33N 39°23' W 000°15'5412.6
2016-Feb-06 08:16N 38°42' E 000°29'912.3
2016-Feb-06 07:33N 38°33' E 000°27'1515.1
2016-Feb-06 06:32N 38°18' E 000°22'1212.2
2016-Feb-06 05:33N 38°07' E 000°18'1211.7
2016-Feb-06 04:33N 37°55' E 000°14'1211.6
2016-Feb-06 03:31N 37°44' E 000°11'1212.0
2016-Feb-06 02:33N 37°32' E 000°07'1212.2
2016-Feb-06 01:33N 37°21' E 000°03'1212.1
2016-Feb-06 00:32N 37°09' W 000°02'1212.2
2016-Feb-05 23:33N 36°57' W 000°06'2612.0
2016-Feb-05 21:22N 36°32' W 000°13'2411.9
2016-Feb-05 19:23N 36°09' W 000°21'  
2016-Feb-03 02:20N 35°43' W 000°38'0 0.0
2016-Feb-03 01:32N 35°43' W 000°38'0 0.0
2016-Feb-03 00:31N 35°43' W 000°38'0 0.0
2016-Feb-02 23:31N 35°43' W 000°38'0 0.0
2016-Feb-02 21:31N 35°43' W 000°38'0 0.0
2016-Feb-02 20:31N 35°43' W 000°38'0 0.0
2016-Feb-02 19:07N 35°43' W 000°38'0 0.0
2016-Feb-02 18:25N 35°43' W 000°38'0 0.0
2016-Feb-02 15:20N 35°43' W 000°38'0 0.0
2016-Feb-02 14:20N 35°43' W 000°38'0 0.0
2016-Feb-02 13:31N 35°43' W 000°38'0 0.0
2016-Feb-02 12:31N 35°43' W 000°38'0 0.0
2016-Feb-02 11:13N 35°43' W 000°38'0 0.0
2016-Feb-02 05:07N 35°43' W 000°38'0 0.0
2016-Feb-02 02:20N 35°43' W 000°38'0 0.0
2016-Feb-02 00:19N 35°43' W 000°38'0 0.0
2016-Feb-01 23:19N 35°43' W 000°38'0 0.0
2016-Feb-01 22:07N 35°43' W 000°38'0 0.0
2016-Feb-01 21:13N 35°43' W 000°38'0 0.0
2016-Feb-01 20:25N 35°43' W 000°38'0 0.0
2016-Feb-01 19:19N 35°43' W 000°38'0 0.0
2016-Feb-01 18:31N 35°43' W 000°38'0 0.0
2016-Feb-01 17:25N 35°43' W 000°38'  

Dump ship's entire track history